• Join FlightAware (Why Join?)
  • Login
  • US Flag 
12:12PM EDT


 

Airport Tracker/Info


-or-


 

Live Flight TrackerFlight Track Log ✈ AWI3786 ✈ 25-Aug-2013 ✈ KDCA - CYYZ

Flight Track Log - Related Links

Times and Time Zones

All times are in EDT time to prevent confusion due to time zone crossing. See the AWI3786 flight status page for this flight to view local times or setup timezone preferences in your user account.

Time Position Orientation Groundspeed Altitude Reporting Facility
EDT Latitude Longitude Course Direction KTS MPH feet Rate Location/Type
09:23PM 39.0867 -77.1547 339° North  Level Estimated
09:24PM 39.1650 -77.1939 339° North  Level Estimated
09:25PM 39.2432 -77.2332 339° North  Level Estimated
09:26PM 39.3214 -77.2726 339° North  Level Estimated
09:27PM 39.3997 -77.3120 339° North  Level Estimated
09:28PM 39.4779 -77.3516 339° North  Level Estimated
09:29PM 39.5560 -77.3912 339° North  Level Estimated
09:30PM 39.6342 -77.4309 339° North  Level Estimated
09:31PM 39.7124 -77.4707 339° North  Level Estimated
09:32PM 39.7905 -77.5106 339° North  Level Estimated
09:33PM 39.8686 -77.5506 339° North  Level Estimated
09:34PM 39.9468 -77.5907 339° North  Level Estimated
09:35PM 40.0248 -77.6309 339° North  Level Estimated
09:36PM 40.1029 -77.6712 338° Northwest  Level Estimated
09:37PM 40.1810 -77.7115 338° Northwest  Level Estimated
09:38PM 40.2591 -77.7520 338° Northwest  Level Estimated
09:39PM 40.3371 -77.7925 338° Northwest  Level Estimated
09:40PM 40.4151 -77.8332 338° Northwest  Level Estimated
09:41PM 40.4932 -77.8739 338° Northwest  Level Estimated
09:42PM 40.5712 -77.9147 338° Northwest  Level Estimated
09:43PM 40.6492 -77.9557 338° Northwest  Level Estimated
09:44PM 40.7271 -77.9967 338° Northwest  Level Estimated
09:45PM 40.8051 -78.0378 338° Northwest  Level Estimated
09:46PM 40.8830 -78.0790 338° Northwest  Level Estimated
09:47PM 40.9609 -78.1203 338° Northwest  Level Estimated
09:48PM 41.0389 -78.1617 338° Northwest  Level Estimated
09:49PM 41.1168 -78.2032 338° Northwest  Level Estimated
09:50PM 41.1946 -78.2449 338° Northwest  Level Estimated
09:51PM 41.2725 -78.2866 338° Northwest  Level Estimated
09:52PM 41.3504 -78.3283 338° Northwest  Level Estimated
09:53PM 41.4282 -78.3702 338° Northwest  Level Estimated
09:54PM 41.5060 -78.4122 338° Northwest  Level Estimated
09:55PM 41.5838 -78.4544 338° Northwest  Level Estimated
09:56PM 41.6616 -78.4966 338° Northwest  Level Estimated
09:57PM 41.7394 -78.5389 338° Northwest  Level Estimated
09:58PM 41.8172 -78.5813 338° Northwest  Level Estimated
09:59PM 41.8949 -78.6238 338° Northwest  Level Estimated
10:00PM 41.9726 -78.6664 338° Northwest  Level Estimated
10:01PM 42.0504 -78.7092 338° Northwest  Level Estimated
10:02PM 42.1281 -78.7520 338° Northwest  Level Estimated
10:03PM 42.2057 -78.7949 338° Northwest  Level Estimated
10:04PM 42.2834 -78.8380 338° Northwest  Level Estimated
10:05PM 42.3610 -78.8811 338° Northwest  Level Estimated
10:06PM 42.4387 -78.9243 338° Northwest  Level Estimated
10:07PM 42.5163 -78.9677 338° Northwest  Level Estimated
10:08PM 42.5939 -79.0112 338° Northwest  Level Estimated
10:09PM 42.6715 -79.0547 338° Northwest  Level Estimated
10:10PM 42.7491 -79.0984 338° Northwest  Level Estimated
10:11PM 42.8266 -79.1422 338° Northwest  Level Estimated
10:12PM 42.9041 -79.1861 337° Northwest  Level Estimated
10:13PM 42.9817 -79.2301 337° Northwest  Level Estimated
10:14PM 43.0592 -79.2743 337° Northwest  Level Estimated
10:15PM 43.1367 -79.3185 337° Northwest  Level Estimated
10:16PM 43.2141 -79.3628 337° Northwest  Level Estimated
10:17PM 43.2916 -79.4073 337° Northwest  Level Estimated
10:18PM 43.3690 -79.4519 337° Northwest  Level Estimated
10:19PM 43.4464 -79.4966 337° Northwest  Level Estimated
10:20PM 43.5238 -79.5414 337° Northwest  Level Estimated
10:21PM 43.6012 -79.5863 337° Northwest  Level Estimated
10:22PM 43.6772 -79.6306 337° Northwest  Level Estimated
10:23PM 43.6772 -79.6306 44° Northeast  Level Estimated
10:24PM 43.6772 -79.6306 44° Northeast  Level Estimated
10:25PM 43.6772 -79.6306 44° Northeast  Level Estimated
10:26PM 43.6772 -79.6306 44° Northeast  Level Estimated
10:27PM 43.6772 -79.6306 44° Northeast  Level Estimated
10:28PM 43.6772 -79.6306 44° Northeast  Level Estimated
10:29PM 43.6772 -79.6306 44° Northeast  Level Estimated
10:30PM 43.6772 -79.6306 44° Northeast  Level Estimated
10:31PM 43.6772 -79.6306 44° Northeast  Level Estimated
10:32PM 43.6772 -79.6306 44° Northeast  Level Estimated
10:33PM 43.6772 -79.6306 44° Northeast  Level Estimated
10:34PM 43.6772 -79.6306 44° Northeast  Level Estimated
10:35PM 43.6772 -79.6306 44° Northeast  Level Estimated